Portada
METAR-TAF:

METAR-TAF

Aeropuertos :

Curazao, Antillas Neerlandesas

Aeropuerto Internacional Hato

latitud: 12-12N, longitud: 068-58W, altitud: 9 m

Observación

El informe se hizo hace 54 minutos, a las 09:00 UTC
Viento 10 kt del este-sureste
Temperatura 28°C
Humedad 74%
Presión 1012 hPa
Visibilidad 10 km o más
Nubes dispersas a una altura de 1700 ft

METAR: TNCC 230900Z 12010KT 9999 SCT017 28/23 Q1012 NOSIG

Hora: 05:54 (09:54 UTC)

Pronóstico

El informe se hizo hace 6 horas y 7 minutos, a las 03:47 UTC
Pronóstico válido del 23 a las 06 UTC al 24 a las 06 UTC
Viento 15 kt del este
Visibilidad 10 km o más
Nubes dispersas a una altura de 1800 ft
Temporalmente
del 23 a las 06 UTC al 23 a las 12 UTC
Cielo nuboso a una altura de 1500 ft

TAF: TNCC 230347Z 2306/2406 10015KT 9999 SCT018 TEMPO 2306/2312 BKN015

Observaciones y pronósticos meteorológicos de más de 4000 aeropuertos (mensajes METAR y TAF).

Los puntos amarillos y rojos representan las estaciones disponibles.

Ponga el ratón en el punto deseado para ver el nombre de la estación.

Haga clic para ver las observaciones y los pronósticos meteorológicos.

Para cambiar el mapa : haga clic en los botones verdes con una cruz de color negro para hacer un zoom, en el botón verde con un guión para alejar o en las flechas verdes para mapas adyacentes.


METAR-TAF: